Time;durP1;ratioP1;P1;durP2;ratioP2;P2;SDS_P1;SDS_P2;PMS_P1;PMS_P2;Temp;Humidity;BMP_temperature;BMP_pressure;BME280_temperature;BME280_humidity;BME280_pressure;Samples;Min_cycle;Max_cycle;Signal;HPM_P1;HPM_P2
2022/08/18 00:00:14;;;;;;;15.25;6.30;;;;;;;16.18;100.00;92353.66;5054317;28;20044;-82
2022/08/18 00:02:41;;;;;;;13.63;6.60;;;;;;;16.19;100.00;92356.00;5058370;28;20037;-82
2022/08/18 00:05:08;;;;;;;16.48;5.88;;;;;;;16.26;100.00;92344.91;5075455;28;20040;-82
2022/08/18 00:07:36;;;;;;;17.25;5.95;;;;;;;16.29;100.00;92354.81;5077600;28;20068;-81
2022/08/18 00:10:03;;;;;;;18.27;6.38;;;;;;;16.27;100.00;92350.94;5060237;28;20038;-82
2022/08/18 00:12:35;;;;;;;13.88;6.60;;;;;;;16.32;100.00;92359.44;5078402;28;20025;-81
2022/08/18 00:15:04;;;;;;;;;;;;;;;16.32;100.00;92354.16;5076144;28;20044;-82
2022/08/18 00:17:35;;;;;;;15.02;6.10;;;;;;;16.37;100.00;92350.53;5079550;28;19912;-82
2022/08/18 00:20:01;;;;;;;12.38;5.90;;;;;;;16.38;100.00;92363.44;5078507;28;20032;-81
2022/08/18 00:22:27;;;;;;;14.55;6.60;;;;;;;16.40;100.00;92361.22;5079128;28;20477;-82
2022/08/18 00:24:55;;;;;;;13.73;5.95;;;;;;;16.38;100.00;92360.78;5076424;28;20402;-82
2022/08/18 00:27:29;;;;;;;12.25;5.88;;;;;;;16.37;100.00;92366.38;5078678;28;20097;-82
2022/08/18 00:29:59;;;;;;;11.57;5.65;;;;;;;16.40;100.00;92373.69;5078560;28;20048;-82
2022/08/18 00:32:29;;;;;;;14.52;6.00;;;;;;;16.42;100.00;92379.41;5061310;28;20032;-82
2022/08/18 00:34:55;;;;;;;12.98;5.78;;;;;;;16.43;100.00;92363.22;5075782;28;20032;-81
2022/08/18 00:37:21;;;;;;;15.57;5.90;;;;;;;16.44;100.00;92353.44;5042997;28;20059;-82
2022/08/18 00:39:49;;;;;;;14.13;5.65;;;;;;;16.44;100.00;92351.56;5060855;28;20041;-82
2022/08/18 00:42:21;;;;;;;17.58;5.90;;;;;;;16.43;100.00;92354.53;5062270;28;20041;-82
2022/08/18 00:44:48;;;;;;;13.57;5.65;;;;;;;16.42;100.00;92348.47;5070860;28;20111;-82
2022/08/18 00:47:14;;;;;;;14.00;5.63;;;;;;;16.42;100.00;92337.91;5081663;28;20028;-82
2022/08/18 00:49:41;;;;;;;13.57;5.78;;;;;;;16.42;100.00;92329.97;5046349;28;20036;-82
2022/08/18 00:52:11;;;;;;;17.77;6.55;;;;;;;16.47;100.00;92323.72;5081524;28;20028;-82
2022/08/18 00:54:40;;;;;;;11.73;5.60;;;;;;;16.45;100.00;92328.56;5063054;28;20037;-81
2022/08/18 00:57:07;;;;;;;14.10;6.07;;;;;;;16.42;100.00;92332.63;5054647;28;20115;-81
2022/08/18 00:59:55;;;;;;;14.45;5.70;;;;;;;16.44;100.00;92335.72;5061214;28;20025;-82
2022/08/18 01:02:31;;;;;;;15.70;6.05;;;;;;;16.44;100.00;92346.28;5059434;28;20032;-82
2022/08/18 01:05:06;;;;;;;9.77;5.57;;;;;;;16.44;100.00;92341.00;5055395;28;20025;-82
2022/08/18 01:07:43;;;;;;;11.48;4.82;;;;;;;16.42;100.00;92337.91;5045965;28;20056;-82
2022/08/18 01:10:09;;;;;;;17.88;5.90;;;;;;;16.52;100.00;92341.25;5042484;28;20044;-82
2022/08/18 01:12:36;;;;;;;12.70;5.97;;;;;;;16.42;100.00;92337.91;5060711;28;20041;-82
2022/08/18 01:15:02;;;;;;;15.38;5.28;;;;;;;16.37;100.00;92334.69;5078990;28;20067;-82
2022/08/18 01:23:15;;;;;;;12.63;5.03;;;;;;;16.37;100.00;92322.28;5061724;28;20493;-82
2022/08/18 01:26:05;;;;;;;9.70;4.70;;;;;;;16.37;100.00;92308.28;5079699;28;20394;-82
2022/08/18 01:28:37;;;;;;;12.80;5.65;;;;;;;16.37;100.00;92303.78;5061201;28;20285;-82
2022/08/18 01:31:04;;;;;;;12.23;4.90;;;;;;;16.41;100.00;92302.03;5042186;28;20040;-83
2022/08/18 01:33:35;;;;;;;13.55;5.28;;;;;;;16.40;100.00;92308.41;5063023;28;20013;-82
2022/08/18 01:36:13;;;;;;;11.85;4.57;;;;;;;16.36;100.00;92304.88;5060266;28;20482;-82
2022/08/18 01:38:40;;;;;;;8.52;4.65;;;;;;;16.35;100.00;92295.41;5059852;28;20033;-82
2022/08/18 01:41:06;;;;;;;10.77;5.00;;;;;;;16.36;100.00;92281.09;5060504;28;20054;-82
2022/08/18 01:43:34;;;;;;;10.88;4.50;;;;;;;16.34;100.00;92277.22;5062722;28;20043;-82
2022/08/18 01:46:02;;;;;;;9.90;4.60;;;;;;;16.39;100.00;92280.47;5042057;28;20051;-82
2022/08/18 01:48:31;;;;;;;8.85;5.20;;;;;;;16.40;100.00;92268.78;5042328;28;20041;-82
2022/08/18 01:50:58;;;;;;;9.60;4.70;;;;;;;16.40;100.00;92274.06;5073672;28;20470;-82
2022/08/18 01:53:23;;;;;;;7.82;4.38;;;;;;;16.49;100.00;92284.53;5078473;28;20703;-81
2022/08/18 01:55:49;;;;;;;13.52;5.28;;;;;;;16.52;100.00;92265.38;5077651;28;20105;-82
2022/08/18 01:58:15;;;;;;;8.65;4.13;;;;;;;16.59;100.00;92270.13;5078423;28;20050;-82
2022/08/18 02:00:40;;;;;;;8.82;4.95;;;;;;;16.55;100.00;92256.03;5079443;28;20268;-81
2022/08/18 02:03:11;;;;;;;11.65;5.20;;;;;;;16.71;100.00;92264.88;5060322;28;20045;-82
2022/08/18 02:05:42;;;;;;;11.93;5.13;;;;;;;16.78;100.00;92280.97;5060267;28;20029;-82
2022/08/18 02:08:08;;;;;;;10.45;5.13;;;;;;;16.78;100.00;92283.59;5079068;28;20036;-82
2022/08/18 02:10:33;;;;;;;11.02;5.10;;;;;;;16.64;100.00;92283.16;5079683;28;20051;-82
2022/08/18 02:12:59;;;;;;;11.75;5.57;;;;;;;16.59;100.00;92283.34;5076414;28;20044;-82
2022/08/18 02:15:24;;;;;;;13.88;5.43;;;;;;;16.56;100.00;92286.66;5075804;28;20052;-82
2022/08/18 02:17:50;;;;;;;9.75;5.25;;;;;;;16.55;100.00;92285.88;5078868;28;20052;-82
2022/08/18 02:20:17;;;;;;;12.32;5.53;;;;;;;16.48;100.00;92279.56;5078326;28;20043;-81
2022/08/18 02:22:44;;;;;;;10.55;5.72;;;;;;;16.53;100.00;92282.03;5044396;28;20044;-82
2022/08/18 02:25:11;;;;;;;14.40;6.32;;;;;;;16.57;100.00;92286.34;5077464;28;20033;-82
2022/08/18 02:27:37;;;;;;;8.80;5.40;;;;;;;16.57;100.00;92291.63;5059144;28;20037;-82
2022/08/18 02:30:06;;;;;;;10.32;6.47;;;;;;;16.57;100.00;92278.41;5058591;28;20033;-82
2022/08/18 02:32:32;;;;;;;14.43;6.22;;;;;;;16.59;100.00;92278.06;5064156;28;20036;-81
2022/08/18 02:34:58;;;;;;;15.07;7.22;;;;;;;16.61;100.00;92271.34;5076875;28;20032;-81
2022/08/18 02:37:24;;;;;;;15.43;8.93;;;;;;;16.85;100.00;92275.91;5077173;28;20144;-81
2022/08/18 02:39:49;;;;;;;12.93;6.03;;;;;;;16.69;100.00;92290.84;5061449;28;20093;-82
2022/08/18 02:42:16;;;;;;;9.90;5.32;;;;;;;16.56;100.00;92278.72;5077700;28;20482;-81
2022/08/18 02:44:42;;;;;;;4.38;2.40;;;;;;;16.26;100.00;92301.84;5078685;28;20040;-81
2022/08/18 02:47:08;;;;;;;5.38;1.50;;;;;;;15.94;100.00;92275.13;5050527;28;20040;-82
2022/08/18 02:49:35;;;;;;;5.13;1.30;;;;;;;15.73;100.00;92304.16;5040620;28;20375;-82
2022/08/18 02:52:02;;;;;;;4.88;1.40;;;;;;;15.53;100.00;92310.94;5057328;28;20037;-80
2022/08/18 02:54:28;;;;;;;2.75;0.88;;;;;;;15.42;100.00;92323.72;5059072;28;20098;-80
2022/08/18 02:56:56;;;;;;;4.10;1.27;;;;;;;15.37;100.00;92329.19;5024711;28;20045;-81
2022/08/18 02:59:23;;;;;;;2.13;1.00;;;;;;;15.37;100.00;92334.47;5069172;28;20036;-81
2022/08/18 03:01:51;;;;;;;4.07;1.20;;;;;;;15.38;100.00;92346.56;5057802;28;20063;-80
2022/08/18 03:04:26;;;;;;;4.00;1.27;;;;;;;15.35;100.00;92340.06;5057685;28;20035;-80
2022/08/18 03:06:54;;;;;;;0.57;0.43;;;;;;;15.32;100.00;92339.94;5040694;28;20040;-80
2022/08/18 03:09:21;;;;;;;1.73;0.75;;;;;;;15.40;100.00;92347.00;5025672;28;20570;-80
2022/08/18 03:11:47;;;;;;;0.70;0.57;;;;;;;15.36;100.00;92367.22;5077165;28;20032;-80
2022/08/18 03:14:15;;;;;;;1.20;0.70;;;;;;;15.42;100.00;92379.13;5059496;28;20404;-80
2022/08/18 03:16:43;;;;;;;287.35;7.35;;;;;;;15.24;100.00;92396.09;5043156;28;20036;-81
2022/08/18 03:19:09;;;;;;;4.13;2.00;;;;;;;15.17;100.00;92402.63;5072271;28;20029;-81
2022/08/18 03:21:36;;;;;;;3.17;1.48;;;;;;;15.13;100.00;92391.19;5077226;28;20064;-79
2022/08/18 03:24:03;;;;;;;2.08;1.27;;;;;;;15.05;100.00;92378.81;5076209;28;20024;-80
2022/08/18 03:26:30;;;;;;;2.45;1.55;;;;;;;15.09;100.00;92373.69;5076836;28;20065;-80
2022/08/18 03:28:58;;;;;;;2.17;1.30;;;;;;;15.12;100.00;92373.81;5057198;28;20045;-79
2022/08/18 03:31:26;;;;;;;1.77;1.13;;;;;;;15.15;100.00;92372.41;5059217;28;20081;-80
2022/08/18 03:33:52;;;;;;;6.15;1.70;;;;;;;15.15;100.00;92375.03;5041992;28;20025;-80
2022/08/18 03:36:21;;;;;;;2.75;1.50;;;;;;;14.99;100.00;92374.78;5057348;28;20440;-79
2022/08/18 03:38:48;;;;;;;109.03;4.53;;;;;;;14.91;100.00;92373.75;5060243;28;20024;-80
2022/08/18 03:41:17;;;;;;;392.50;12.82;;;;;;;14.84;100.00;92372.66;5077011;28;20041;-80
2022/08/18 03:43:43;;;;;;;1.98;1.20;;;;;;;14.82;100.00;92353.78;5058866;28;20032;-80
2022/08/18 03:46:13;;;;;;;2.55;1.13;;;;;;;14.93;100.00;92339.19;5059220;28;20474;-80
2022/08/18 03:48:40;;;;;;;2.85;1.10;;;;;;;14.77;100.00;92323.09;5057832;28;20032;-79
2022/08/18 03:51:09;;;;;;;3.65;1.30;;;;;;;14.80;100.00;92321.72;5076530;28;20037;-80
2022/08/18 03:53:36;;;;;;;2.17;0.80;;;;;;;14.88;100.00;92319.03;5075579;28;20654;-80
2022/08/18 03:56:09;;;;;;;1.50;0.80;;;;;;;14.87;100.00;92319.34;5058302;28;20044;-80
2022/08/18 03:58:36;;;;;;;1.42;0.65;;;;;;;14.88;100.00;92307.72;5076217;28;20506;-80
2022/08/18 04:01:02;;;;;;;2.85;0.75;;;;;;;14.87;100.00;92303.53;5051655;28;20059;-80
2022/08/18 04:03:28;;;;;;;1.45;0.85;;;;;;;14.92;100.00;92292.81;5056658;28;20410;-80
2022/08/18 04:05:55;;;;;;;2.22;0.65;;;;;;;14.94;100.00;92283.50;5039931;28;20037;-80
2022/08/18 04:08:20;;;;;;;2.22;0.80;;;;;;;14.93;100.00;92254.84;5062117;28;20074;-81
2022/08/18 04:10:46;;;;;;;0.50;0.50;;;;;;;15.02;100.00;92245.03;5060989;28;20104;-80
2022/08/18 04:13:11;;;;;;;1.25;0.73;;;;;;;15.05;100.00;92267.34;5062222;28;20115;-80
2022/08/18 04:15:37;;;;;;;0.60;0.60;;;;;;;15.04;100.00;92256.03;5079988;28;20032;-79
2022/08/18 04:18:03;;;;;;;1.20;0.70;;;;;;;15.08;100.00;92254.28;5082267;28;20097;-80
2022/08/18 04:20:33;;;;;;;2.65;0.80;;;;;;;15.06;100.00;92232.72;5045171;28;20036;-81
2022/08/18 04:23:00;;;;;;;1.23;0.70;;;;;;;15.13;100.00;92222.47;5079419;28;20382;-78
2022/08/18 04:25:25;;;;;;;1.35;0.80;;;;;;;15.17;100.00;92244.44;5061899;28;20398;-82
2022/08/18 04:27:56;;;;;;;1.02;0.70;;;;;;;15.20;100.00;92262.28;5063142;28;20040;-80
2022/08/18 04:30:23;;;;;;;0.98;0.70;;;;;;;15.18;100.00;92277.66;5082544;28;20028;-80
2022/08/18 04:32:51;;;;;;;1.30;0.80;;;;;;;15.15;100.00;92294.13;5073106;28;20059;-79
2022/08/18 04:35:17;;;;;;;3.20;0.90;;;;;;;15.18;100.00;92305.88;5056546;28;20028;-80
2022/08/18 04:37:42;;;;;;;1.17;0.93;;;;;;;15.24;100.00;92306.47;5053181;28;20032;-78
2022/08/18 04:40:10;;;;;;;2.40;0.80;;;;;;;15.26;100.00;92314.81;5072081;28;20039;-79
2022/08/18 04:42:35;;;;;;;4.15;0.90;;;;;;;15.23;100.00;92310.97;5067407;28;20044;-76
2022/08/18 04:45:01;;;;;;;4.60;1.10;;;;;;;15.21;100.00;92323.69;5048519;28;20025;-79
2022/08/18 04:47:27;;;;;;;2.03;0.95;;;;;;;15.22;100.00;92335.81;5034587;28;20437;-77
2022/08/18 04:49:53;;;;;;;4.22;1.10;;;;;;;15.18;100.00;92340.94;5039315;28;20048;-77
2022/08/18 04:55:03;;;;;;;2.55;0.80;;;;;;;15.18;100.00;92340.94;5070874;28;20510;-76
2022/08/18 04:57:32;;;;;;;2.55;1.08;;;;;;;15.22;100.00;92356.09;5035578;28;20033;-77
2022/08/18 04:59:58;;;;;;;3.38;1.00;;;;;;;15.22;100.00;92364.81;5035652;28;20061;-76
2022/08/18 05:02:24;;;;;;;1.85;0.90;;;;;;;15.16;100.00;92347.59;5021944;28;20037;-77
2022/08/18 05:04:50;;;;;;;3.03;1.23;;;;;;;15.12;100.00;92336.91;5051955;28;20028;-76
2022/08/18 05:07:19;;;;;;;1.40;1.02;;;;;;;15.10;100.00;92341.72;5047482;28;20102;-77
2022/08/18 05:09:45;;;;;;;2.22;1.17;;;;;;;15.14;100.00;92355.81;5032836;28;20481;-77
2022/08/18 05:12:12;;;;;;;2.83;1.08;;;;;;;15.11;100.00;92339.88;5048780;28;20509;-77
2022/08/18 05:14:40;;;;;;;2.55;1.10;;;;;;;15.10;100.00;92333.81;5045613;28;20443;-77
2022/08/18 05:17:06;;;;;;;3.40;0.98;;;;;;;15.11;100.00;92324.06;5047153;28;20032;-77
2022/08/18 05:19:34;;;;;;;2.42;1.10;;;;;;;15.12;100.00;92310.56;5045971;28;20013;-77
2022/08/18 05:22:00;;;;;;;1.05;0.82;;;;;;;15.13;100.00;92288.38;5070721;28;20456;-78
2022/08/18 05:24:27;;;;;;;5.30;1.40;;;;;;;15.11;100.00;92256.28;5015176;28;20123;-76
2022/08/18 05:26:54;;;;;;;4.15;1.42;;;;;;;15.22;100.00;92258.53;5055935;28;20068;-76
2022/08/18 05:29:20;;;;;;;2.80;1.23;;;;;;;15.23;100.00;92241.66;5068600;28;20106;-76
2022/08/18 05:31:48;;;;;;;3.30;1.48;;;;;;;15.30;100.00;92249.81;5023163;28;20396;-77
2022/08/18 05:34:14;;;;;;;2.38;1.50;;;;;;;15.35;100.00;92245.09;5057683;28;20028;-76
2022/08/18 05:37:08;;;;;;;3.00;1.50;;;;;;;15.40;100.00;92223.03;5021309;28;20051;-76
2022/08/18 05:39:53;;;;;;;3.08;1.25;;;;;;;15.44;100.00;92218.69;5071918;28;20060;-76
2022/08/18 05:42:21;;;;;;;2.90;1.17;;;;;;;15.44;100.00;92192.31;5072066;28;20025;-76
2022/08/18 05:44:51;;;;;;;2.58;1.20;;;;;;;15.57;100.00;92204.44;5065230;28;20033;-76
2022/08/18 05:47:24;;;;;;;3.25;1.08;;;;;;;15.61;100.00;92205.34;5051945;28;20029;-76
2022/08/18 05:49:51;;;;;;;1.85;1.08;;;;;;;15.73;100.00;92222.38;5051914;28;20045;-76
2022/08/18 05:52:37;;;;;;;2.75;1.60;;;;;;;15.73;100.00;92238.97;5051905;28;20056;-76
2022/08/18 05:58:13;;;;;;;3.33;1.50;;;;;;;15.64;100.00;92290.22;5065288;28;20037;-77
2022/08/18 06:00:43;;;;;;;26.98;2.15;;;;;;;15.32;100.00;92303.78;5053684;28;20432;-75
2022/08/18 06:03:31;;;;;;;24.48;1.70;;;;;;;15.21;100.00;92294.69;5053892;28;20036;-75
2022/08/18 06:06:00;;;;;;;3.00;1.30;;;;;;;15.14;100.00;92297.06;5033689;28;20029;-75
2022/08/18 06:08:37;;;;;;;2.90;1.60;;;;;;;15.13;100.00;92298.94;5050460;28;20130;-76
2022/08/18 06:11:03;;;;;;;1.85;1.30;;;;;;;15.13;100.00;92317.38;5051845;28;20064;-76
2022/08/18 06:13:35;;;;;;;2.40;1.23;;;;;;;15.15;100.00;92328.38;5051617;28;20122;-76
2022/08/18 06:16:16;;;;;;;2.10;1.30;;;;;;;15.20;100.00;92333.47;5054579;28;20078;-76
2022/08/18 06:18:53;;;;;;;3.30;1.35;;;;;;;15.19;100.00;92352.25;5065667;28;20032;-75
2022/08/18 06:21:25;;;;;;;2.20;1.20;;;;;;;15.20;100.00;92348.53;5071421;28;20036;-76
2022/08/18 06:24:14;;;;;;;2.08;1.20;;;;;;;15.26;100.00;92351.75;5071194;28;20151;-76
2022/08/18 06:26:45;;;;;;;3.97;1.20;;;;;;;15.27;100.00;92342.75;5041536;28;20490;-76
2022/08/18 06:29:29;;;;;;;4.57;1.33;;;;;;;15.31;100.00;92357.63;5051331;28;20515;-76
2022/08/18 06:32:10;;;;;;;2.10;1.30;;;;;;;15.35;100.00;92363.03;5051111;28;20043;-76
2022/08/18 06:34:57;;;;;;;3.28;1.45;;;;;;;15.42;100.00;92360.66;5051259;28;20052;-75
2022/08/18 06:37:32;;;;;;;1.63;0.95;;;;;;;15.41;100.00;92353.84;5059195;28;20047;-76
2022/08/18 06:39:58;;;;;;;2.67;1.40;;;;;;;15.45;100.00;92356.63;5053425;28;20036;-76
2022/08/18 06:42:29;;;;;;;3.55;1.20;;;;;;;15.43;100.00;92356.94;5071241;28;20036;-78
2022/08/18 06:45:02;;;;;;;3.08;1.17;;;;;;;15.46;100.00;92352.88;5070935;28;20400;-76
2022/08/18 06:47:40;;;;;;;2.17;1.30;;;;;;;15.48;100.00;92343.56;5049153;28;20331;-78
2022/08/18 06:50:12;;;;;;;4.15;1.20;;;;;;;15.50;100.00;92346.66;5051497;28;20361;-77
2022/08/18 06:52:51;;;;;;;1.73;1.02;;;;;;;15.53;100.00;92346.00;5033024;28;20033;-77
2022/08/18 06:55:30;;;;;;;2.25;0.95;;;;;;;15.58;100.00;92332.66;5051157;28;20041;-77
2022/08/18 06:57:59;;;;;;;3.50;1.17;;;;;;;15.65;100.00;92307.59;5034917;28;20059;-77
2022/08/18 07:00:28;;;;;;;5.38;1.40;;;;;;;15.88;100.00;92292.25;5053163;28;20366;-78
2022/08/18 07:02:59;;;;;;;2.15;1.10;;;;;;;16.02;100.00;92279.56;5070654;28;20531;-77
2022/08/18 07:05:28;;;;;;;1.63;1.02;;;;;;;16.19;100.00;92283.91;5070830;28;20047;-77
2022/08/18 07:08:11;;;;;;;2.17;1.10;;;;;;;16.31;100.00;92283.94;5070541;28;20489;-78
2022/08/18 07:10:40;;;;;;;2.72;1.17;;;;;;;16.54;99.58;92296.78;5031639;28;20060;-77
2022/08/18 07:13:27;;;;;;;4.35;1.48;;;;;;;16.65;100.00;92297.91;5032819;28;20045;-77
2022/08/18 07:16:13;;;;;;;2.45;1.27;;;;;;;16.88;100.00;92279.78;5032671;28;20040;-78
2022/08/18 07:18:39;;;;;;;3.72;1.40;;;;;;;17.25;100.00;92272.63;5050262;28;20115;-77
2022/08/18 07:21:04;;;;;;;2.88;1.10;;;;;;;17.46;100.00;92255.84;5069348;28;20134;-78
2022/08/18 07:23:39;;;;;;;2.13;1.27;;;;;;;17.81;100.00;92252.63;5070412;28;20054;-77
2022/08/18 07:26:11;;;;;;;4.70;1.50;;;;;;;18.33;100.00;92243.88;5070438;28;20036;-78
2022/08/18 07:28:46;;;;;;;3.28;1.40;;;;;;;18.86;96.56;92249.72;5070285;28;20112;-78
2022/08/18 07:31:18;;;;;;;3.13;1.15;;;;;;;19.20;93.06;92252.00;5037515;28;20040;-78
2022/08/18 07:33:54;;;;;;;3.97;1.48;;;;;;;19.56;90.17;92237.63;5050277;28;20037;-78
2022/08/18 07:36:24;;;;;;;2.67;1.20;;;;;;;19.79;88.93;92234.31;5032887;28;20040;-78
2022/08/18 07:39:13;;;;;;;3.03;1.23;;;;;;;20.17;88.98;92222.91;5050666;28;20502;-76
2022/08/18 07:41:51;;;;;;;2.70;1.20;;;;;;;20.10;86.23;92218.22;5064970;28;20528;-78
2022/08/18 07:44:42;;;;;;;4.40;1.40;;;;;;;20.09;86.84;92216.69;5037034;28;20036;-78
2022/08/18 07:47:28;;;;;;;3.83;1.33;;;;;;;20.34;87.59;92195.13;5054460;28;20116;-78
2022/08/18 07:49:57;;;;;;;2.67;1.33;;;;;;;20.43;87.19;92197.56;5054405;28;20047;-78
2022/08/18 07:52:58;;;;;;;5.15;1.40;;;;;;;20.78;84.55;92200.03;5055672;28;20047;-78
2022/08/18 07:55:31;;;;;;;2.75;1.27;;;;;;;21.17;86.13;92189.22;5013481;28;20506;-77
2022/08/18 07:58:21;;;;;;;4.60;1.25;;;;;;;21.53;79.52;92198.47;5054508;28;20033;-77
2022/08/18 08:01:31;;;;;;;6.35;1.77;;;;;;;21.81;78.32;92192.72;5054103;28;20049;-77
2022/08/18 08:04:05;;;;;;;5.13;1.40;;;;;;;21.42;81.20;92189.59;5033352;28;20045;-77
2022/08/18 08:06:41;;;;;;;4.35;1.40;;;;;;;21.02;81.96;92174.19;5036352;28;20045;-77
2022/08/18 08:10:05;;;;;;;5.20;1.50;;;;;;;20.41;84.60;92183.84;5053754;28;20574;-77
2022/08/18 08:12:51;;;;;;;6.57;1.30;;;;;;;20.11;91.59;92189.78;4972402;28;20508;-77
2022/08/18 08:15:33;;;;;;;4.10;1.58;;;;;;;20.06;89.66;92190.84;4969570;28;20039;-77
2022/08/18 08:18:07;;;;;;;5.25;1.40;;;;;;;20.32;90.94;92189.38;5045002;28;20064;-76
2022/08/18 08:20:45;;;;;;;5.38;1.27;;;;;;;20.21;91.34;92201.72;5054163;28;20044;-75
2022/08/18 08:23:24;;;;;;;4.88;1.50;;;;;;;20.11;85.25;92209.16;5036137;28;20037;-76
2022/08/18 08:25:55;;;;;;;3.92;1.50;;;;;;;20.04;89.06;92230.28;5069431;28;20106;-76
2022/08/18 08:28:32;;;;;;;2.15;1.30;;;;;;;20.07;89.84;92218.16;5073616;28;20032;-76
2022/08/18 08:30:58;;;;;;;6.85;1.65;;;;;;;20.11;86.85;92201.19;5073291;28;20098;-76
2022/08/18 08:33:30;;;;;;;4.15;1.50;;;;;;;19.98;86.90;92199.78;5055497;28;20017;-76
2022/08/18 08:36:05;;;;;;;;;;;;;;;19.86;86.59;92199.91;5066274;28;20458;-77
2022/08/18 08:38:43;;;;;;;2.55;1.08;;;;;;;19.91;82.55;92194.34;5054366;28;19913;-77
2022/08/18 08:41:31;;;;;;;4.55;1.30;;;;;;;20.01;83.19;92185.03;5035906;28;20040;-77
2022/08/18 08:44:12;;;;;;;3.00;1.20;;;;;;;20.22;85.98;92182.78;5053667;28;20119;-77
2022/08/18 08:46:50;;;;;;;6.88;1.63;;;;;;;20.52;85.38;92190.88;5064395;28;20032;-77
2022/08/18 08:49:55;;;;;;;3.95;1.67;;;;;;;20.81;85.61;92185.28;5073084;28;20097;-78
2022/08/18 08:52:26;;;;;;;3.25;1.42;;;;;;;20.89;83.65;92171.69;4955732;28;20061;-77
2022/08/18 08:55:10;;;;;;;2.35;1.20;;;;;;;20.93;81.94;92145.94;5058299;28;20044;-77
2022/08/18 08:57:41;;;;;;;3.72;1.33;;;;;;;20.85;81.89;92138.19;5071674;28;20493;-77
2022/08/18 09:00:10;;;;;;;2.07;1.20;;;;;;;20.83;80.13;92135.91;5055181;28;20052;-76
2022/08/18 09:03:04;;;;;;;2.95;1.50;;;;;;;20.74;79.13;92132.75;5055657;28;20055;-76
2022/08/18 09:05:45;;;;;;;4.20;1.40;;;;;;;20.63;79.50;92131.81;5055497;28;20033;-75
2022/08/18 09:08:42;;;;;;;3.08;1.35;;;;;;;20.08;87.78;92137.34;5056694;28;20037;-75
2022/08/18 09:11:48;;;;;;;4.68;1.55;;;;;;;19.86;88.85;92141.50;5018791;28;20049;-74
2022/08/18 09:14:51;;;;;;;3.45;1.40;;;;;;;19.63;90.50;92130.81;5035234;28;20040;-76
2022/08/18 09:17:32;;;;;;;3.67;1.60;;;;;;;19.52;90.16;92112.00;5056302;28;20036;-77
2022/08/18 09:20:08;;;;;;;3.00;1.40;;;;;;;19.44;89.66;92113.00;5052961;28;20029;-77
2022/08/18 09:22:51;;;;;;;3.20;1.40;;;;;;;19.26;91.68;92094.84;5065002;28;20136;-77
2022/08/18 09:25:38;;;;;;;4.82;1.63;;;;;;;19.26;88.84;92099.38;5054693;28;20033;-77
2022/08/18 09:28:11;;;;;;;5.18;1.40;;;;;;;18.96;91.06;92091.19;5065049;28;20044;-78
2022/08/18 09:30:45;;;;;;;5.25;1.60;;;;;;;18.75;94.35;92094.88;5053610;28;20041;-77
2022/08/18 09:33:19;;;;;;;3.70;1.80;;;;;;;18.28;97.90;92099.16;5034622;28;20090;-76
2022/08/18 09:35:56;;;;;;;3.42;1.80;;;;;;;18.04;100.00;92094.81;5034805;28;20036;-76
2022/08/18 09:41:32;;;;;;;6.88;1.80;;;;;;;18.13;98.77;92091.97;5052291;28;20136;-76
2022/08/18 09:44:09;;;;;;;2.67;1.40;;;;;;;18.16;96.38;92091.28;5034264;28;20037;-76
2022/08/18 09:46:46;;;;;;;3.70;1.40;;;;;;;18.23;93.74;92101.28;5035517;28;20390;-76
2022/08/18 09:49:21;;;;;;;2.72;1.30;;;;;;;18.06;91.72;92089.16;5051787;28;20033;-76
2022/08/18 09:51:48;;;;;;;3.45;1.52;;;;;;;18.09;92.69;92083.19;5034380;28;20033;-76
2022/08/18 09:54:17;;;;;;;4.50;1.40;;;;;;;17.96;90.76;92076.44;5034326;28;20025;-76
2022/08/18 09:56:48;;;;;;;4.60;1.67;;;;;;;18.02;93.18;92073.19;5053307;28;20033;-76
2022/08/18 09:59:32;;;;;;;3.87;1.57;;;;;;;18.06;88.91;92065.34;5054160;28;20068;-78
2022/08/18 10:02:00;;;;;;;3.65;1.50;;;;;;;18.01;91.66;92063.72;5051973;28;20707;-78
2022/08/18 10:04:35;;;;;;;4.78;1.70;;;;;;;17.85;95.79;92054.97;5051287;28;20045;-77
2022/08/18 10:07:32;;;;;;;3.70;1.52;;;;;;;17.69;95.14;92058.34;5034651;28;20152;-76
2022/08/18 10:10:05;;;;;;;3.10;1.50;;;;;;;17.55;98.19;92058.00;5051998;28;20459;-75
2022/08/18 10:12:55;;;;;;;3.75;1.90;;;;;;;17.51;100.00;92059.78;5017354;28;20545;-76
2022/08/18 10:15:45;;;;;;;3.60;1.70;;;;;;;17.63;97.13;92066.88;5052219;28;20037;-76
2022/08/18 10:18:28;;;;;;;4.22;1.50;;;;;;;17.39;97.29;92073.09;5052616;28;20028;-77
2022/08/18 10:20:56;;;;;;;3.15;1.50;;;;;;;17.32;97.34;92075.53;5051287;28;20044;-77
2022/08/18 10:23:43;;;;;;;4.30;1.75;;;;;;;17.41;98.83;92099.97;5033576;28;20094;-77
2022/08/18 10:26:30;;;;;;;5.10;1.50;;;;;;;17.41;99.82;92094.69;5050791;28;20028;-77
2022/08/18 10:28:58;;;;;;;2.60;1.58;;;;;;;17.39;100.00;92112.75;5034395;28;20079;-78
2022/08/18 10:31:26;;;;;;;3.08;1.67;;;;;;;17.32;100.00;92129.22;5033544;28;20032;-77
2022/08/18 10:34:10;;;;;;;4.20;1.58;;;;;;;17.33;100.00;92140.56;5051320;28;20091;-78
2022/08/18 10:36:49;;;;;;;4.85;1.75;;;;;;;17.29;100.00;92135.16;5051498;28;20084;-77
2022/08/18 10:39:27;;;;;;;4.50;1.58;;;;;;;17.24;96.92;92153.91;5056572;28;20316;-78
2022/08/18 10:42:01;;;;;;;8.95;2.47;;;;;;;17.16;98.77;92166.19;5056496;28;20181;-78
2022/08/18 10:44:30;;;;;;;3.72;1.92;;;;;;;16.93;100.00;92157.16;5058970;28;20071;-78
2022/08/18 10:46:59;;;;;;;6.38;2.00;;;;;;;16.91;100.00;92159.38;5068821;28;20024;-77
2022/08/18 10:49:30;;;;;;;4.72;2.35;;;;;;;16.88;100.00;92152.13;5052909;28;20029;-77
2022/08/18 10:52:12;;;;;;;6.40;2.33;;;;;;;16.92;100.00;92156.41;5037233;28;20127;-76
2022/08/18 10:54:57;;;;;;;5.10;2.10;;;;;;;16.92;100.00;92153.00;5052106;28;20036;-78
2022/08/18 10:57:26;;;;;;;4.07;2.30;;;;;;;16.89;100.00;92151.78;5065813;28;20098;-77
2022/08/18 11:00:03;;;;;;;7.00;2.60;;;;;;;16.87;100.00;92158.53;5051145;28;20399;-77
2022/08/18 11:02:59;;;;;;;9.68;2.90;;;;;;;16.78;100.00;92163.88;5061891;28;20112;-77
2022/08/18 11:05:26;;;;;;;6.07;2.30;;;;;;;16.89;100.00;92174.78;5060882;28;20497;-77
2022/08/18 11:07:59;;;;;;;6.65;2.60;;;;;;;16.84;100.00;92184.50;5042186;28;20059;-77
2022/08/18 11:10:49;;;;;;;5.38;2.55;;;;;;;16.92;100.00;92197.94;5055685;28;20486;-76
2022/08/18 11:13:36;;;;;;;4.65;2.47;;;;;;;16.92;100.00;92205.88;5060904;28;20530;-77
2022/08/18 11:16:14;;;;;;;7.15;2.65;;;;;;;16.78;100.00;92212.22;5054308;28;20044;-78
2022/08/18 11:18:43;;;;;;;6.95;2.83;;;;;;;16.78;100.00;92217.53;5069568;28;20056;-78
2022/08/18 11:21:43;;;;;;;16.20;3.05;;;;;;;16.78;100.00;92220.16;5059764;28;20112;-75
2022/08/18 11:24:08;;;;;;;5.25;2.70;;;;;;;16.74;100.00;92219.28;5017019;28;20553;-76
2022/08/18 11:26:54;;;;;;;9.70;2.80;;;;;;;16.72;100.00;92223.34;5058791;28;20116;-76
2022/08/18 11:29:25;;;;;;;6.45;2.55;;;;;;;16.70;100.00;92231.59;5032535;28;20029;-76
2022/08/18 11:32:01;;;;;;;5.88;2.90;;;;;;;16.69;100.00;92232.72;5032845;28;20422;-76
2022/08/18 11:34:43;;;;;;;5.45;2.67;;;;;;;16.64;100.00;92238.22;5045981;28;20349;-76
2022/08/18 11:37:25;;;;;;;5.00;2.70;;;;;;;16.62;100.00;92237.78;5050404;28;20583;-76
2022/08/18 11:39:54;;;;;;;7.60;3.00;;;;;;;16.78;100.00;92238.66;5063107;28;20032;-76
2022/08/18 11:42:28;;;;;;;140.57;5.65;;;;;;;16.57;100.00;92232.69;5032075;28;20064;-76
2022/08/18 11:45:01;;;;;;;6.10;2.85;;;;;;;16.42;100.00;92242.81;5036166;28;20514;-77
2022/08/18 11:47:27;;;;;;;6.28;3.15;;;;;;;16.38;100.00;92241.16;5050644;28;20036;-76
2022/08/18 11:50:06;;;;;;;7.72;2.97;;;;;;;16.29;100.00;92230.69;5037189;28;20519;-76
2022/08/18 11:52:46;;;;;;;7.88;2.92;;;;;;;16.26;100.00;92239.25;5068633;28;20040;-76
2022/08/18 11:55:27;;;;;;;563.70;13.80;;;;;;;16.16;100.00;92239.66;5058532;28;20036;-77
2022/08/18 11:57:56;;;;;;;4.28;2.10;;;;;;;16.12;100.00;92234.28;5049973;28;20108;-76
2022/08/18 12:00:45;;;;;;;4.95;2.30;;;;;;;16.16;100.00;92219.31;5066866;28;20052;-78
2022/08/18 12:03:14;;;;;;;3.72;1.80;;;;;;;16.20;100.00;92216.78;5060537;28;20433;-77
2022/08/18 12:05:53;;;;;;;3.35;1.50;;;;;;;16.22;100.00;92199.50;5059826;28;20569;-78
2022/08/18 12:08:35;;;;;;;3.95;1.60;;;;;;;16.31;100.00;92193.38;5055605;28;20029;-77